AirNav   Pilot Hours Calculator
 
 918 users online  

6CO9 Salida Hospital Heliport
Salida, Colorado, USA

GOING TO SALIDA?


FAA INFORMATION EFFECTIVE 08 SEPTEMBER 2022

Location

FAA Identifier: 6CO9
Lat/Long: 38-32-37.8300N 106-00-32.7000W
38-32.630500N 106-00.545000W
38.5438417,-106.0090833
(estimated)
106-00-26.4W
Elevation: 7050 ft. / 2149 m (estimated)
7110
Variation: 12E (1985)
Time zone: UTC -6 (UTC -7 during Standard Time)
Zip code: 81201

Heliport Operations

Heliport use: Private use, MEDICAL USE.
Activation date: 10/1978
Control tower: no
ARTCC: DENVER CENTER
FSS: DENVER FLIGHT SERVICE STATION
Attendance: UNATNDD
Wind indicator: yes
Segmented circle: no
Lights: 5 CLICKS ON 123.05.

Heliport Communications

WX AWOS-3 at ANK (1.9 nm W): 133.85 (719-539-5268)
WX AWOS-3 at AEJ (17 nm N): 132.925 (719-395-2599)

Heliport Services

Runway Information

Helipad H1

Dimensions: 65 x 55 ft. / 20 x 17 m
Surface: concrete
Runway edge lights: PERI
PERIMETER LGTS.
Latitude: 38-32.630500N
Longitude: 106-00.545000W
Elevation: 7050.0 ft.
Traffic pattern: leftleft

Heliport Ownership and Management from official FAA records

Ownership: Privately-owned
Owner: SALIDA HOSPITAL
1000 RUSH DRIVE
SALIDA, CO 81201
Phone 719-530-2200
Manager: DAVID COLARELLI, DIRECTOR
1000 RUSH DRIVE
SALIDA, CO 81201
Phone (719) 530-2268

Additional Remarks

FOR CD CTC DENVER ARTCC AT 303-651-4257.
A52-H1 BLDG 75 FT EAST. NUCLEAR MED TRAILER 65 FT SE.

Instrument Procedures

There are no published instrument procedures at 6CO9.

Some nearby airports with instrument procedures:

KANK - Salida Airport/Harriett Alexander Field (2 nm W)
KAEJ - Central Colorado Regional Airport (17 nm N)
1V6 - Fremont County Airport (43 nm E)
KLXV - Lake County Airport (43 nm N)
KGUC - Gunnison-Crested Butte Regional Airport (43 nm W)
 
Loc | Ops | Rwys | IFR | FBO | Links
Com | Nav | Svcs | Stats | Notes

AirBoss

 
Area around 6CO9 (Salida Hospital Heliport)
 
Road maps at: MapQuest Bing Google
 
Aerial photo
No photo
 
Sectional chart

 
Airport distance calculator
Flying to Salida Hospital Heliport? Find the distance to fly.

From to 6CO9

Sunrise and sunset
Times for 24-Sep-2022
 Local
(UTC-6)
 Zulu
(UTC)
Morning civil twilight06:2812:28
Sunrise06:5512:55
Sunset18:5800:58
Evening civil twilight19:2401:24

Current date and time
Zulu (UTC)  24-Sep-2022 23:17:51
Local (UTC-6)  24-Sep-2022 17:17:51
 
METAR
KANK 
2nm W 
242250Z AUTO 00000KT 10SM CLR A3037 RMK AO1
KMYP 
15nm W 
242215Z AUTO 23017G25KT 10SM CLR 13/M03 A3073 RMK AO2
KAEJ 
17nm N 
242255Z AUTO 30012G16KT 10SM 24/M12 A3033 RMK AO2 T02351121
K7BM 
18nm NW 
242254Z AUTO 22007KT 180V250 10SM CLR 19/M15 A3048 RMK AO2
TAF
KGUC 
43nm W 
241737Z 2418/2518 VRB04KT P6SM SKC FM242000 25010KT P6SM SKC FM250200 VRB03KT P6SM SKC
NOTAMs
Click for the latest NOTAMs
NOTAMs are issued by the DoD/FAA and will open in a separate window not controlled by AirNav.

 

 
 

Would you like to see your business listed on this page?

 If your business provides an interesting product or service to pilots, flight crews, aircraft, or users of the Salida Hospital Heliport, you should consider listing it here.  To start the listing process, click on the button below
 
Add a business
 

Other Pages about Salida Hospital Heliport

Update a link
 
Copyright © AirNav, LLC. All rights reserved. Privacy Policy  Contact